Allenspark, Colorado
Current Conditions -  °F | °C
As of 5:55 PM on Saturday 20 Dec 2014 (Local Time) from KBDU Reporting Station
Clear Clear  
Wind Chill: 37°   Ceiling: Unl
Heat Index: 37°   Visibility: 10mi
Dew Point: 21°   Wind: 3mph
Humidity: 52%   Direction: 280°W
Pressure: 29.93"   Gusts: NA
Location:  40.19°N, 105.53°W
Report Text: KBDU 210055Z AUTO 28003KT 10SM CLR 03/M06 A2993 RMK AO2
Loading
Personal Weather Stations






























Interactive Weather Map New forecast layout! Learn more

10-Day Weather Forecast

Advertisements
Track Severe Weather on mobile